Time;durP1;ratioP1;P1;durP2;ratioP2;P2;SDS_P1;SDS_P2;PMS_P1;PMS_P2;Temp;Humidity;BMP_temperature;BMP_pressure;BME280_temperature;BME280_humidity;BME280_pressure;Samples;Min_cycle;Max_cycle;Signal;HPM_P1;HPM_P2
2021/03/19 00:00:07;;;;;;;3.70;2.42;;;;;;;19.34;65.88;102981.41;5053592;28;20037;-66
2021/03/19 00:02:33;;;;;;;4.15;2.10;;;;;;;19.35;66.01;102982.25;5029865;28;20022;-66
2021/03/19 00:04:59;;;;;;;3.28;1.80;;;;;;;19.35;66.03;102982.25;5029421;28;20369;-66
2021/03/19 00:07:24;;;;;;;2.90;2.10;;;;;;;19.34;65.67;102983.22;5029593;28;20443;-66
2021/03/19 00:09:53;;;;;;;4.13;1.88;;;;;;;19.34;65.76;102991.19;5028206;28;20033;-66
2021/03/19 00:12:19;;;;;;;5.20;2.60;;;;;;;19.32;65.93;102972.72;5043285;28;20068;-66
2021/03/19 00:14:45;;;;;;;5.47;2.50;;;;;;;19.33;65.45;102971.72;5029639;28;20029;-66
2021/03/19 00:17:10;;;;;;;3.92;2.15;;;;;;;19.32;65.45;102983.38;5011524;28;20048;-66
2021/03/19 00:19:36;;;;;;;3.58;2.38;;;;;;;19.33;65.98;102976.22;5027418;28;20041;-66
2021/03/19 00:22:01;;;;;;;4.32;2.50;;;;;;;19.32;65.48;102961.25;5044916;28;20021;-67
2021/03/19 00:24:27;;;;;;;3.55;2.35;;;;;;;19.32;65.74;102971.88;5028511;28;20033;-66
2021/03/19 00:26:52;;;;;;;3.90;2.10;;;;;;;19.31;65.47;102967.53;5027863;28;20472;-66
2021/03/19 00:29:18;;;;;;;3.45;2.47;;;;;;;19.31;65.59;102965.72;5045124;28;20025;-66
2021/03/19 00:31:43;;;;;;;4.75;2.65;;;;;;;19.31;65.72;102964.88;5029033;28;20284;-66
2021/03/19 00:34:09;;;;;;;5.70;2.25;;;;;;;19.29;65.31;102970.34;5044665;28;20620;-66
2021/03/19 00:36:35;;;;;;;4.40;2.30;;;;;;;19.30;65.53;102973.84;5028732;28;20075;-67
2021/03/19 00:39:00;;;;;;;3.70;2.42;;;;;;;19.30;65.58;102968.53;5027730;28;20053;-66
2021/03/19 00:41:26;;;;;;;4.30;2.63;;;;;;;19.28;65.45;102968.69;5028214;28;20041;-66
2021/03/19 00:43:51;;;;;;;5.53;2.85;;;;;;;19.29;65.16;102977.50;5045641;28;20029;-66
2021/03/19 00:46:17;;;;;;;3.17;2.30;;;;;;;19.29;65.28;102972.19;5029138;28;20049;-66
2021/03/19 00:48:42;;;;;;;4.63;2.28;;;;;;;19.28;65.23;102965.19;5028145;28;20029;-67
2021/03/19 00:51:08;;;;;;;3.67;2.50;;;;;;;19.27;65.61;102964.34;5027152;28;20133;-66
2021/03/19 00:53:34;;;;;;;3.95;2.50;;;;;;;19.27;65.58;102963.50;5028452;28;20029;-66
2021/03/19 00:55:59;;;;;;;3.83;2.38;;;;;;;19.27;65.29;102959.00;5028046;28;20037;-66
2021/03/19 00:58:25;;;;;;;3.85;2.70;;;;;;;19.27;65.35;102960.84;5043020;28;20053;-66
2021/03/19 01:00:50;;;;;;;3.17;2.40;;;;;;;19.27;65.41;102966.16;5037742;28;20115;-67
2021/03/19 01:03:17;;;;;;;3.33;2.15;;;;;;;19.27;65.56;102968.81;5028955;28;20052;-67
2021/03/19 01:05:45;;;;;;;3.60;2.50;;;;;;;19.26;65.15;102970.66;5028132;28;20483;-66
2021/03/19 01:08:15;;;;;;;3.35;2.33;;;;;;;19.26;65.44;102973.31;5026678;28;20040;-67
2021/03/19 01:10:58;;;;;;;4.25;2.45;;;;;;;19.26;65.36;102983.94;5028329;28;20042;-66
2021/03/19 01:13:25;;;;;;;4.40;2.40;;;;;;;19.25;65.29;102979.59;5034506;28;20159;-66
2021/03/19 01:15:51;;;;;;;4.43;2.97;;;;;;;19.26;65.38;102975.13;5028450;28;20037;-66
2021/03/19 01:18:21;;;;;;;3.67;2.40;;;;;;;19.25;65.47;102970.75;5027570;28;20049;-66
2021/03/19 01:20:47;;;;;;;3.70;2.30;;;;;;;19.25;65.37;102962.78;5028481;28;20048;-67
2021/03/19 01:23:14;;;;;;;3.42;2.10;;;;;;;19.25;65.26;102962.78;5025814;28;20029;-66
2021/03/19 01:25:39;;;;;;;3.53;2.55;;;;;;;19.24;65.44;102961.94;5034967;28;20032;-66
2021/03/19 01:28:05;;;;;;;3.08;2.30;;;;;;;19.24;65.35;102961.94;5027305;28;20608;-67
2021/03/19 01:30:37;;;;;;;4.20;2.47;;;;;;;19.24;65.39;102966.41;5028027;28;20033;-66
2021/03/19 01:33:04;;;;;;;3.67;2.40;;;;;;;19.24;65.43;102969.91;5027849;28;20113;-66
2021/03/19 01:35:31;;;;;;;3.47;2.60;;;;;;;19.25;65.33;102970.75;5027238;28;20036;-66
2021/03/19 01:37:57;;;;;;;3.30;2.40;;;;;;;19.23;65.26;102962.91;5027095;28;20041;-67
2021/03/19 01:40:26;;;;;;;3.50;2.15;;;;;;;19.23;65.04;102962.06;5027980;28;20033;-66
2021/03/19 01:42:57;;;;;;;3.53;2.30;;;;;;;19.23;65.00;102964.75;5027412;28;20029;-66
2021/03/19 01:45:59;;;;;;;3.90;2.60;;;;;;;19.21;65.10;102975.53;5026450;28;20041;-66
2021/03/19 01:49:02;;;;;;;3.38;2.47;;;;;;;19.20;65.17;102973.84;5027256;28;20021;-66
2021/03/19 01:52:05;;;;;;;3.83;2.33;;;;;;;19.19;65.16;102980.16;5019908;28;20037;-66
2021/03/19 01:55:08;;;;;;;3.75;2.40;;;;;;;19.20;65.01;102988.97;5035761;28;20041;-66
2021/03/19 01:58:10;;;;;;;3.17;2.50;;;;;;;19.19;65.08;102987.28;5027552;28;20536;-66
2021/03/19 02:01:13;;;;;;;3.20;2.28;;;;;;;19.18;65.28;102982.97;5027392;28;20042;-67
2021/03/19 02:04:16;;;;;;;4.85;2.95;;;;;;;19.18;64.91;102985.63;5037320;28;20457;-67
2021/03/19 02:07:19;;;;;;;3.63;2.40;;;;;;;19.17;65.25;102981.28;5035157;28;20039;-66
2021/03/19 02:10:22;;;;;;;3.75;2.60;;;;;;;19.16;64.97;102972.47;5046169;28;20498;-66
2021/03/19 02:13:25;;;;;;;3.90;2.53;;;;;;;19.16;65.20;102967.13;5028391;28;20028;-66
2021/03/19 02:16:27;;;;;;;3.92;2.47;;;;;;;19.15;64.87;102957.47;5029809;28;20037;-67
2021/03/19 02:19:30;;;;;;;3.80;2.70;;;;;;;19.15;65.20;102968.97;5024537;28;20317;-66
2021/03/19 02:22:33;;;;;;;4.40;3.00;;;;;;;19.14;64.87;102967.28;5021044;28;20103;-66
2021/03/19 02:25:36;;;;;;;3.03;2.17;;;;;;;19.14;64.88;102963.78;5032139;28;20025;-66
2021/03/19 02:28:39;;;;;;;4.35;2.72;;;;;;;19.13;64.93;102946.97;5029741;28;20277;-66
2021/03/19 02:31:13;;;;;;;3.70;2.40;;;;;;;19.15;64.89;102946.84;5031596;28;20076;-67
2021/03/19 02:33:48;;;;;;;3.75;2.78;;;;;;;19.15;65.23;102949.50;5042539;28;20017;-67
2021/03/19 02:36:18;;;;;;;4.05;2.95;;;;;;;19.14;64.81;102953.97;5032015;28;20076;-66
2021/03/19 02:38:44;;;;;;;3.40;2.50;;;;;;;19.16;64.75;102959.16;5028790;28;20028;-66
2021/03/19 02:41:09;;;;;;;4.00;2.75;;;;;;;19.15;64.78;102960.97;5029275;28;20778;-66
2021/03/19 02:43:35;;;;;;;3.38;2.40;;;;;;;19.16;64.75;102953.84;5029065;28;20115;-66
2021/03/19 02:46:00;;;;;;;3.33;2.60;;;;;;;19.14;64.76;102959.31;5031685;28;20045;-66
2021/03/19 02:48:26;;;;;;;4.60;2.42;;;;;;;19.14;64.65;102953.97;5029818;28;20052;-66
2021/03/19 02:50:51;;;;;;;3.35;2.60;;;;;;;19.16;64.99;102959.16;5030319;28;20709;-67
2021/03/19 02:53:21;;;;;;;3.88;2.35;;;;;;;19.15;64.69;102958.31;5030342;28;20027;-66
2021/03/19 02:55:47;;;;;;;4.35;2.72;;;;;;;19.14;65.21;102959.31;5030177;28;20025;-66
2021/03/19 02:58:13;;;;;;;3.38;2.25;;;;;;;19.14;64.91;102953.97;5030366;28;20092;-66
2021/03/19 03:00:38;;;;;;;3.45;2.42;;;;;;;19.14;64.84;102956.66;5056189;28;20061;-66
2021/03/19 03:03:04;;;;;;;3.22;2.53;;;;;;;19.14;65.04;102959.31;5019247;28;20040;-66
2021/03/19 03:05:30;;;;;;;4.15;2.65;;;;;;;19.14;65.09;102958.47;5030159;28;20029;-66
2021/03/19 03:07:56;;;;;;;4.15;3.08;;;;;;;19.13;64.97;102957.63;5045206;28;20040;-66
2021/03/19 03:10:24;;;;;;;3.60;2.60;;;;;;;19.14;64.72;102959.31;5030933;28;20041;-66
2021/03/19 03:12:50;;;;;;;2.95;2.00;;;;;;;19.13;64.84;102957.63;5040944;28;20021;-66
2021/03/19 03:15:18;;;;;;;3.67;2.45;;;;;;;19.13;64.93;102954.97;5030651;28;20490;-66
2021/03/19 03:17:45;;;;;;;4.25;2.25;;;;;;;19.13;64.79;102957.63;5030489;28;20036;-66
2021/03/19 03:20:15;;;;;;;3.70;2.53;;;;;;;19.12;64.65;102947.97;5030264;28;20049;-66
2021/03/19 03:22:41;;;;;;;3.40;2.58;;;;;;;19.12;64.66;102952.44;5029169;28;20075;-67
2021/03/19 03:25:09;;;;;;;3.97;2.67;;;;;;;19.13;64.90;102946.16;5030696;28;20175;-66
2021/03/19 03:27:35;;;;;;;4.47;2.78;;;;;;;19.13;64.65;102946.97;5029330;28;20029;-66
2021/03/19 03:30:03;;;;;;;3.63;2.50;;;;;;;19.13;64.77;102951.47;5029873;28;20614;-67
2021/03/19 03:32:29;;;;;;;3.65;2.63;;;;;;;19.13;64.69;102946.16;5030782;28;20034;-66
2021/03/19 03:34:54;;;;;;;3.28;2.30;;;;;;;19.10;64.71;102947.28;5044894;28;20525;-67
2021/03/19 03:37:20;;;;;;;3.55;2.28;;;;;;;19.12;64.78;102953.28;5035253;28;20048;-67
2021/03/19 03:39:45;;;;;;;3.25;2.50;;;;;;;19.11;64.61;102951.59;5027433;28;20045;-67
2021/03/19 03:42:11;;;;;;;3.10;2.50;;;;;;;19.12;64.46;102963.09;5030205;28;20076;-66
2021/03/19 03:44:36;;;;;;;3.72;2.60;;;;;;;19.10;64.74;102960.56;5029926;28;20022;-66
2021/03/19 03:47:02;;;;;;;3.17;2.50;;;;;;;19.10;64.87;102960.56;5028751;28;20146;-66
2021/03/19 03:49:28;;;;;;;3.17;2.40;;;;;;;19.11;64.87;102967.56;5030132;28;20484;-66
2021/03/19 03:51:53;;;;;;;3.80;2.95;;;;;;;19.10;64.88;102965.06;5028346;28;20040;-66
2021/03/19 03:54:19;;;;;;;3.92;2.30;;;;;;;19.09;64.56;102961.56;5027521;28;20060;-66
2021/03/19 03:56:45;;;;;;;3.45;2.55;;;;;;;19.12;64.89;102971.06;5029194;28;20037;-67
2021/03/19 03:59:11;;;;;;;2.97;2.17;;;;;;;19.11;64.62;102967.56;5028140;28;20053;-66
2021/03/19 04:01:38;;;;;;;3.45;2.45;;;;;;;19.10;64.87;102971.22;5030778;28;20034;-66
2021/03/19 04:04:05;;;;;;;3.20;2.35;;;;;;;19.09;64.55;102972.19;5045685;28;20041;-66
2021/03/19 04:06:30;;;;;;;3.15;2.33;;;;;;;19.10;64.34;102981.03;5064217;28;20096;-67
2021/03/19 04:08:56;;;;;;;3.10;2.20;;;;;;;19.10;64.77;102983.69;5028786;28;20045;-66
2021/03/19 04:11:22;;;;;;;3.25;2.60;;;;;;;19.10;64.28;102984.53;5027546;28;20608;-66
2021/03/19 04:13:48;;;;;;;3.33;2.53;;;;;;;19.09;64.64;102988.16;5028809;28;20155;-66
2021/03/19 04:16:15;;;;;;;3.45;2.58;;;;;;;19.09;64.45;102989.94;5028573;28;20143;-66
2021/03/19 04:18:41;;;;;;;4.10;2.50;;;;;;;19.09;64.31;102989.94;5061646;28;20064;-67
2021/03/19 04:21:08;;;;;;;3.55;2.53;;;;;;;19.09;64.57;102987.28;5033451;28;20064;-66
2021/03/19 04:23:36;;;;;;;3.05;2.30;;;;;;;19.08;64.32;102991.78;5030517;28;20104;-66
2021/03/19 04:26:03;;;;;;;3.35;2.50;;;;;;;19.08;64.34;102996.25;5035883;28;20033;-66
2021/03/19 04:28:33;;;;;;;3.25;2.45;;;;;;;19.06;64.30;102991.06;5046797;28;20045;-66
2021/03/19 04:30:59;;;;;;;3.30;2.40;;;;;;;19.07;64.30;102992.75;5034164;28;20022;-67
2021/03/19 04:33:27;;;;;;;3.28;2.33;;;;;;;19.08;64.55;102990.94;5027904;28;20037;-66
2021/03/19 04:36:01;;;;;;;3.78;2.60;;;;;;;19.06;64.15;102988.41;5039913;28;20029;-66
2021/03/19 04:38:28;;;;;;;2.78;2.03;;;;;;;19.06;64.51;102987.56;5042736;28;20016;-66
2021/03/19 04:40:54;;;;;;;3.40;2.50;;;;;;;19.07;64.48;102991.91;5033150;28;20076;-67
2021/03/19 04:43:19;;;;;;;3.28;2.33;;;;;;;19.07;64.22;102983.94;5028940;28;20033;-66
2021/03/19 04:45:45;;;;;;;2.80;2.03;;;;;;;19.05;64.50;102986.75;5027352;28;20029;-66
2021/03/19 04:48:12;;;;;;;3.17;2.20;;;;;;;19.06;64.19;102979.59;5028785;28;20554;-66
2021/03/19 04:50:38;;;;;;;2.88;2.22;;;;;;;19.05;64.04;102975.25;5043589;28;20065;-66
2021/03/19 04:53:04;;;;;;;3.65;2.60;;;;;;;19.05;64.24;102989.41;5035751;28;20448;-66
2021/03/19 04:55:29;;;;;;;2.80;2.20;;;;;;;19.05;64.19;102991.22;5038280;28;20029;-66
2021/03/19 04:57:55;;;;;;;3.10;2.35;;;;;;;19.05;64.27;102986.75;5060717;28;20127;-66
2021/03/19 05:00:22;;;;;;;2.75;2.17;;;;;;;19.05;64.07;102988.56;5028995;28;20029;-66
2021/03/19 05:02:49;;;;;;;3.60;2.67;;;;;;;19.04;64.20;102995.69;5042805;28;20076;-66
2021/03/19 05:05:20;;;;;;;3.50;2.65;;;;;;;19.02;64.06;102992.34;5028676;28;20033;-66
2021/03/19 05:07:46;;;;;;;3.20;2.53;;;;;;;19.03;64.11;102998.50;5028379;28;20071;-66
2021/03/19 05:10:14;;;;;;;4.00;2.40;;;;;;;19.03;64.41;102996.69;5042273;28;20053;-66
2021/03/19 05:12:39;;;;;;;3.42;2.17;;;;;;;19.03;64.34;103004.66;5028552;28;20034;-66
2021/03/19 05:15:06;;;;;;;5.15;2.63;;;;;;;19.02;64.30;103002.16;5043213;28;20041;-66
2021/03/19 05:17:33;;;;;;;4.60;2.40;;;;;;;19.02;63.86;103013.63;5028017;28;20041;-66
2021/03/19 05:19:59;;;;;;;3.05;2.10;;;;;;;19.02;64.33;103012.78;5026174;28;20033;-66
2021/03/19 05:22:25;;;;;;;3.70;2.38;;;;;;;19.02;64.07;103012.78;5027657;28;20079;-67
2021/03/19 05:24:51;;;;;;;3.03;2.15;;;;;;;19.02;63.95;103018.94;5056187;28;20033;-66
2021/03/19 05:27:17;;;;;;;3.35;2.38;;;;;;;19.02;64.33;103024.25;5010258;28;20365;-67
2021/03/19 05:29:43;;;;;;;2.90;2.25;;;;;;;19.01;63.94;103019.94;5027152;28;20044;-67
2021/03/19 05:32:09;;;;;;;2.67;2.00;;;;;;;19.01;64.15;103027.91;5027767;28;20079;-66
2021/03/19 05:34:35;;;;;;;2.88;2.15;;;;;;;19.01;63.82;103027.91;5059549;28;20033;-66
2021/03/19 05:37:00;;;;;;;3.55;2.38;;;;;;;19.01;64.04;103027.06;5027098;28;20029;-66
2021/03/19 05:39:27;;;;;;;2.83;2.30;;;;;;;19.00;64.01;103026.22;5028807;28;20073;-66
2021/03/19 05:41:52;;;;;;;2.75;1.95;;;;;;;19.00;63.97;103036.03;5042444;28;20100;-66
2021/03/19 05:44:23;;;;;;;4.00;2.60;;;;;;;18.98;64.07;103022.03;5027400;28;20113;-66
2021/03/19 05:46:53;;;;;;;3.17;2.15;;;;;;;18.99;63.81;103034.34;5027138;28;20021;-66
2021/03/19 05:49:21;;;;;;;3.50;2.50;;;;;;;19.00;63.93;103033.38;5028193;28;20433;-66
2021/03/19 05:51:53;;;;;;;3.33;1.85;;;;;;;18.98;63.77;103032.66;5021341;28;20041;-66
2021/03/19 05:54:28;;;;;;;3.35;2.00;;;;;;;18.97;64.16;103037.16;5021623;28;20031;-66
2021/03/19 05:56:59;;;;;;;3.75;2.40;;;;;;;18.98;63.74;103038.00;5027124;28;20044;-66
2021/03/19 05:59:28;;;;;;;2.42;1.80;;;;;;;18.99;63.68;103039.66;5027745;28;20591;-66
2021/03/19 06:01:54;;;;;;;2.45;1.85;;;;;;;18.98;63.86;103040.66;5026270;28;20041;-66
2021/03/19 06:04:21;;;;;;;3.60;2.20;;;;;;;18.98;63.73;103043.31;5041617;28;20025;-66
2021/03/19 06:06:49;;;;;;;3.00;2.22;;;;;;;18.98;63.74;103048.63;5027007;28;20034;-66
2021/03/19 06:09:26;;;;;;;4.15;1.90;;;;;;;18.95;63.98;103049.75;5027137;28;20034;-66
2021/03/19 06:11:57;;;;;;;2.67;2.00;;;;;;;18.97;63.86;103045.13;5041562;28;20030;-66
2021/03/19 06:14:24;;;;;;;3.10;2.08;;;;;;;18.97;63.76;103050.44;5026241;28;20048;-67
2021/03/19 06:16:58;;;;;;;2.80;2.08;;;;;;;18.97;63.74;103055.78;5026045;28;20495;-66
2021/03/19 06:19:26;;;;;;;3.45;2.20;;;;;;;18.96;64.16;103054.09;5027264;28;20041;-67
2021/03/19 06:22:20;;;;;;;3.47;2.38;;;;;;;18.94;63.82;103057.88;5026928;28;20353;-66
2021/03/19 06:24:54;;;;;;;3.33;2.30;;;;;;;18.94;63.88;103058.72;5027292;28;20033;-67
2021/03/19 06:27:25;;;;;;;2.67;1.85;;;;;;;18.95;63.70;103057.72;5027364;28;20044;-66
2021/03/19 06:29:59;;;;;;;3.63;2.20;;;;;;;18.95;63.61;103059.56;5032477;28;20083;-66
2021/03/19 06:32:29;;;;;;;3.45;2.20;;;;;;;18.94;63.57;103058.72;5026782;28;20028;-66
2021/03/19 06:35:10;;;;;;;2.70;1.92;;;;;;;18.92;63.73;103060.63;5048208;28;20057;-66
2021/03/19 06:37:39;;;;;;;3.08;2.20;;;;;;;18.93;63.51;103046.38;5026677;28;20033;-66
2021/03/19 06:40:30;;;;;;;2.75;2.00;;;;;;;18.92;63.89;103057.13;5026586;28;20139;-66
2021/03/19 06:43:30;;;;;;;2.80;2.00;;;;;;;18.92;63.93;103062.47;5025608;28;20417;-66
2021/03/19 06:46:13;;;;;;;2.80;1.92;;;;;;;18.91;63.68;103056.31;5020844;28;20033;-67
2021/03/19 06:48:43;;;;;;;3.10;1.80;;;;;;;18.94;63.51;103060.53;5025363;28;20025;-66
2021/03/19 06:51:32;;;;;;;2.85;1.80;;;;;;;18.91;63.51;103058.97;5026930;28;20141;-66
2021/03/19 06:54:13;;;;;;;2.90;1.80;;;;;;;18.91;63.50;103061.63;5028431;28;20029;-66
2021/03/19 06:56:40;;;;;;;2.30;1.70;;;;;;;18.92;63.71;103071.28;5024655;28;20033;-67
2021/03/19 06:59:24;;;;;;;3.30;1.90;;;;;;;18.89;63.68;103068.91;5026288;28;20055;-66
2021/03/19 07:01:50;;;;;;;2.58;1.95;;;;;;;18.91;63.59;103079.41;5026814;28;20238;-67
2021/03/19 07:04:24;;;;;;;2.65;1.70;;;;;;;18.91;63.37;103085.56;5018440;28;20561;-66
2021/03/19 07:07:05;;;;;;;2.78;1.90;;;;;;;18.91;63.19;103079.41;5050420;28;20040;-66
2021/03/19 07:09:36;;;;;;;4.40;1.92;;;;;;;18.89;63.38;103082.19;5031524;28;20021;-66
2021/03/19 07:12:08;;;;;;;3.58;2.00;;;;;;;18.89;63.45;103084.84;5028728;28;20037;-66
2021/03/19 07:14:40;;;;;;;2.47;1.80;;;;;;;18.89;63.45;103084.84;5054991;28;20047;-66
2021/03/19 07:17:14;;;;;;;3.13;1.83;;;;;;;18.87;63.15;103089.47;5028519;28;20057;-66
2021/03/19 07:20:22;;;;;;;2.42;1.73;;;;;;;18.87;63.43;103092.13;5030739;28;20041;-66
2021/03/19 07:23:03;;;;;;;2.15;1.70;;;;;;;18.88;63.27;103082.34;5034688;28;20052;-68
2021/03/19 07:25:34;;;;;;;2.45;1.60;;;;;;;18.89;63.27;103076.03;5041839;28;20104;-69
2021/03/19 07:28:02;;;;;;;3.95;1.98;;;;;;;18.90;63.34;103088.34;5026802;28;20033;-70
2021/03/19 07:30:36;;;;;;;4.53;2.10;;;;;;;18.89;63.85;103089.34;5027155;28;20168;-69
2021/03/19 07:33:23;;;;;;;2.88;1.98;;;;;;;18.89;63.57;103097.31;5030025;28;20029;-69
2021/03/19 07:36:31;;;;;;;5.43;2.58;;;;;;;18.87;64.24;103099.28;5033746;28;20092;-70
2021/03/19 07:39:18;;;;;;;7.43;2.70;;;;;;;18.89;64.11;103098.16;5021410;28;20052;-69
2021/03/19 07:41:56;;;;;;;7.90;2.13;;;;;;;18.90;64.34;103099.84;5032136;28;20129;-68
2021/03/19 07:44:31;;;;;;;3.08;2.03;;;;;;;18.90;64.34;103099.84;5018924;28;20046;-69
2021/03/19 07:47:06;;;;;;;;;;;;;;;18.87;64.47;103099.28;5023579;28;20090;-69
2021/03/19 07:49:37;;;;;;;9.23;2.00;;;;;;;18.90;64.57;103110.47;5024877;28;20681;-69
2021/03/19 07:52:35;;;;;;;5.72;1.90;;;;;;;18.88;64.67;103122.22;5029317;28;20128;-70
2021/03/19 07:55:15;;;;;;;4.97;2.42;;;;;;;18.89;64.98;103132.72;5025697;28;20034;-69
2021/03/19 07:58:10;;;;;;;6.88;1.80;;;;;;;18.89;64.83;103139.88;5024427;28;20029;-68
2021/03/19 08:00:44;;;;;;;4.57;1.92;;;;;;;18.90;65.00;103130.91;5020013;28;20100;-66
2021/03/19 08:03:20;;;;;;;5.15;1.90;;;;;;;18.90;64.98;103130.91;5029040;28;20056;-69
2021/03/19 08:05:51;;;;;;;9.18;1.92;;;;;;;18.91;64.86;103125.44;5031879;28;20021;-67
2021/03/19 08:08:37;;;;;;;6.38;2.30;;;;;;;18.90;64.96;103129.09;5044682;28;20041;-69
2021/03/19 08:11:30;;;;;;;6.97;2.35;;;;;;;18.89;64.56;103129.22;5025573;28;20033;-67
2021/03/19 08:14:15;;;;;;;5.88;2.15;;;;;;;18.89;64.88;103139.88;5026115;28;20159;-67
2021/03/19 08:16:49;;;;;;;5.10;2.13;;;;;;;18.90;64.80;103142.38;5012105;28;20022;-67
2021/03/19 08:19:28;;;;;;;9.48;2.33;;;;;;;18.88;64.45;103141.69;5022895;28;20098;-68
2021/03/19 08:22:09;;;;;;;8.07;2.22;;;;;;;18.89;63.99;103142.53;5025688;28;20030;-68
2021/03/19 08:24:46;;;;;;;5.72;2.13;;;;;;;18.90;64.11;103136.22;5028647;28;20037;-67
2021/03/19 08:27:33;;;;;;;6.85;2.15;;;;;;;18.89;63.78;103135.38;5027440;28;20831;-69
2021/03/19 08:30:33;;;;;;;4.28;2.13;;;;;;;18.87;63.36;103145.31;5028145;28;20044;-69
2021/03/19 08:33:16;;;;;;;7.43;2.28;;;;;;;18.89;63.21;103153.16;5029397;28;20045;-67
2021/03/19 08:36:00;;;;;;;6.15;2.90;;;;;;;18.87;63.16;103147.97;5026973;28;20045;-70
2021/03/19 08:38:34;;;;;;;15.35;3.28;;;;;;;18.87;62.82;103158.63;5025798;28;20151;-67
2021/03/19 08:41:28;;;;;;;6.35;2.00;;;;;;;18.86;62.64;103151.63;5019509;28;20041;-68
2021/03/19 08:43:58;;;;;;;5.63;2.10;;;;;;;18.87;62.34;103142.66;5057395;28;20037;-67
2021/03/19 08:46:30;;;;;;;5.40;2.13;;;;;;;18.87;62.06;103153.31;5055617;28;20033;-66
2021/03/19 08:48:59;;;;;;;7.25;2.10;;;;;;;18.87;61.85;103145.31;5024880;28;20452;-69
2021/03/19 08:51:28;;;;;;;8.65;2.40;;;;;;;18.87;61.40;103144.47;5025985;28;20025;-68
2021/03/19 08:54:12;;;;;;;7.35;2.05;;;;;;;18.80;60.96;103155.69;5024300;28;20535;-66
2021/03/19 08:56:40;;;;;;;6.60;1.80;;;;;;;18.79;60.12;103156.66;5027123;28;20056;-66
2021/03/19 08:59:05;;;;;;;7.75;2.28;;;;;;;18.77;59.67;103157.72;5027184;28;20603;-67
2021/03/19 09:01:54;;;;;;;6.55;2.50;;;;;;;18.72;58.86;103159.97;5027933;28;20069;-66
2021/03/19 09:04:57;;;;;;;7.95;2.40;;;;;;;18.68;58.43;103158.56;5016123;28;20025;-66
2021/03/19 09:07:37;;;;;;;9.18;3.10;;;;;;;18.63;57.61;103163.41;5028622;28;20091;-67
2021/03/19 09:10:11;;;;;;;8.13;3.67;;;;;;;18.59;57.68;103162.81;5030743;22;20055;-62
2021/03/19 09:12:55;;;;;;;14.27;3.88;;;;;;;18.52;56.70;103164.31;4972519;28;20045;-62
2021/03/19 09:15:20;;;;;;;6.25;3.70;;;;;;;18.51;56.39;103160.00;4969799;28;20173;-63
2021/03/19 09:17:50;;;;;;;6.85;3.67;;;;;;;18.47;56.11;103156.75;4971297;28;20109;-62
2021/03/19 09:20:37;;;;;;;9.43;3.80;;;;;;;18.43;55.83;103157.13;4969774;28;20031;-62
2021/03/19 09:23:08;;;;;;;8.23;4.13;;;;;;;18.40;55.36;103166.22;4968502;28;20038;-62
2021/03/19 09:25:52;;;;;;;8.65;4.97;;;;;;;18.38;55.40;103162.00;4968107;28;20121;-62
2021/03/19 09:28:26;;;;;;;8.60;5.47;;;;;;;18.36;55.33;103163.97;4965434;28;20035;-62
2021/03/19 09:31:06;;;;;;;9.43;5.78;;;;;;;18.35;55.25;103157.81;4969846;28;20045;-63
2021/03/19 09:33:41;;;;;;;11.88;6.30;;;;;;;18.32;54.98;103168.72;4968440;28;20070;-62
2021/03/19 09:36:44;;;;;;;9.48;6.32;;;;;;;18.31;54.97;103171.50;4967702;28;20896;-62
2021/03/19 09:39:45;;;;;;;7.22;6.03;;;;;;;18.29;54.39;103176.91;4961715;28;20102;-63
2021/03/19 09:42:31;;;;;;;9.40;6.38;;;;;;;18.26;54.12;103164.75;4957715;28;20421;-63
2021/03/19 09:44:59;;;;;;;9.23;6.40;;;;;;;18.27;54.28;103170.91;4961394;28;20126;-63
2021/03/19 09:47:32;;;;;;;10.10;6.97;;;;;;;18.28;54.44;103175.22;4969972;28;20034;-63
2021/03/19 09:50:07;;;;;;;7.43;5.97;;;;;;;18.27;54.07;103173.56;4969006;28;20121;-63
2021/03/19 09:52:33;;;;;;;8.88;6.40;;;;;;;18.28;54.24;103177.88;4971494;28;20041;-63
2021/03/19 09:54:58;;;;;;;9.45;6.05;;;;;;;18.28;53.74;103183.22;4969409;28;20043;-63
2021/03/19 09:57:27;;;;;;;9.48;6.20;;;;;;;18.27;53.53;103182.38;4967431;28;20041;-63
2021/03/19 10:00:00;;;;;;;7.20;5.80;;;;;;;18.25;53.65;103179.00;4968431;28;20026;-63
2021/03/19 10:02:35;;;;;;;7.38;6.28;;;;;;;18.25;53.23;103186.13;4968201;28;20043;-64
2021/03/19 10:05:08;;;;;;;8.07;5.63;;;;;;;18.23;53.39;103185.41;4968831;28;20042;-63
2021/03/19 10:07:35;;;;;;;6.97;5.40;;;;;;;18.24;53.43;103187.09;4969416;28;20093;-62
2021/03/19 10:10:01;;;;;;;8.90;5.60;;;;;;;18.23;53.36;103191.56;4967408;28;20067;-63
2021/03/19 10:12:30;;;;;;;6.70;4.95;;;;;;;18.21;52.94;103187.38;4968093;28;20045;-63
2021/03/19 10:15:19;;;;;;;7.32;5.13;;;;;;;18.18;52.79;103188.47;4968820;28;20113;-63
2021/03/19 10:17:50;;;;;;;8.15;5.03;;;;;;;18.15;52.67;103182.59;4964122;28;20026;-63
2021/03/19 10:20:20;;;;;;;5.85;4.93;;;;;;;18.14;52.70;103194.16;4972781;28;20039;-63
2021/03/19 10:22:49;;;;;;;6.43;4.78;;;;;;;18.11;52.86;103183.78;4969508;28;20121;-63
2021/03/19 10:25:20;;;;;;;6.53;4.88;;;;;;;18.11;52.63;103192.59;4969256;28;20545;-63
2021/03/19 10:27:51;;;;;;;5.63;4.68;;;;;;;18.11;53.08;103184.63;4967953;28;20117;-63
2021/03/19 10:30:30;;;;;;;7.15;4.57;;;;;;;18.10;52.69;103184.75;4969597;28;20073;-63
2021/03/19 10:33:08;;;;;;;5.38;4.28;;;;;;;18.12;52.62;103185.47;4968672;28;20055;-63
2021/03/19 10:35:37;;;;;;;5.22;3.67;;;;;;;18.11;52.47;103189.09;4968608;28;20038;-63
2021/03/19 10:38:11;;;;;;;5.10;3.58;;;;;;;18.09;52.61;103186.59;4968992;28;20039;-63
2021/03/19 10:40:38;;;;;;;5.07;3.95;;;;;;;18.10;52.75;103182.09;4970512;28;20038;-63
2021/03/19 10:43:27;;;;;;;4.93;4.10;;;;;;;18.07;52.35;103179.72;4971607;28;20136;-63
2021/03/19 10:46:20;;;;;;;4.78;4.03;;;;;;;18.07;52.69;103177.06;4972388;28;20077;-63
2021/03/19 10:49:00;;;;;;;5.03;3.47;;;;;;;18.09;52.62;103183.09;4966039;28;20037;-63
2021/03/19 10:51:34;;;;;;;5.80;3.85;;;;;;;18.09;52.73;103194.56;4969110;28;20031;-63
2021/03/19 10:54:05;;;;;;;6.28;4.22;;;;;;;18.10;52.50;103185.59;4971957;28;20037;-63
2021/03/19 10:56:31;;;;;;;5.40;3.88;;;;;;;18.09;52.56;103183.94;4971961;28;20117;-64
2021/03/19 10:59:30;;;;;;;5.53;3.88;;;;;;;18.07;52.59;103183.22;4971202;28;20069;-63
2021/03/19 11:02:15;;;;;;;6.20;4.32;;;;;;;18.08;52.39;103186.72;4970850;28;20027;-63
2021/03/19 11:04:41;;;;;;;6.80;3.80;;;;;;;18.10;52.41;103190.06;4972589;28;20493;-63
2021/03/19 11:07:22;;;;;;;6.18;4.03;;;;;;;18.08;52.75;103198.19;4962388;28;20105;-63
2021/03/19 11:10:07;;;;;;;5.85;4.20;;;;;;;18.10;52.57;103195.38;4972560;28;20454;-63
2021/03/19 11:12:46;;;;;;;5.75;3.70;;;;;;;18.10;52.33;103193.56;4969969;28;20113;-63
2021/03/19 11:15:24;;;;;;;4.15;3.55;;;;;;;18.09;52.38;103197.22;4970898;28;20085;-63
2021/03/19 11:18:12;;;;;;;5.50;3.22;;;;;;;18.08;52.84;103189.38;4970845;28;20046;-63
2021/03/19 11:20:38;;;;;;;4.78;3.50;;;;;;;18.10;52.59;103190.06;4970208;28;20062;-63
2021/03/19 11:23:25;;;;;;;6.45;3.50;;;;;;;18.08;52.48;103194.69;4971714;28;20078;-63
2021/03/19 11:25:53;;;;;;;5.03;3.28;;;;;;;18.09;52.73;103197.22;4971960;28;20504;-63
2021/03/19 11:28:39;;;;;;;5.15;3.10;;;;;;;18.07;52.28;103191.19;4971700;28;20462;-63
2021/03/19 11:31:29;;;;;;;4.68;2.75;;;;;;;18.05;52.19;103187.81;4970377;28;20043;-63
2021/03/19 11:34:05;;;;;;;5.30;3.03;;;;;;;18.07;52.47;103185.03;4962823;28;20027;-63
2021/03/19 11:36:49;;;;;;;3.33;2.60;;;;;;;18.06;52.72;103194.81;4971966;28;20058;-63
2021/03/19 11:39:24;;;;;;;4.15;2.60;;;;;;;18.07;52.47;103193.84;4970261;28;20037;-63
2021/03/19 11:41:50;;;;;;;4.38;2.58;;;;;;;18.08;52.75;103189.38;4968075;28;20027;-63
2021/03/19 11:44:16;;;;;;;3.35;2.60;;;;;;;18.08;52.48;103186.72;4971675;28;20604;-63
2021/03/19 11:46:42;;;;;;;3.25;2.38;;;;;;;18.08;52.73;103184.91;4966861;28;20039;-63
2021/03/19 11:49:13;;;;;;;3.30;2.22;;;;;;;18.10;52.83;103190.06;4970367;28;20882;-63
2021/03/19 11:51:39;;;;;;;4.07;2.65;;;;;;;18.09;52.72;103194.56;4971199;28;20053;-63
2021/03/19 11:54:09;;;;;;;3.30;2.28;;;;;;;18.10;52.59;103190.06;4967692;28;20471;-63